Time;durP1;ratioP1;P1;durP2;ratioP2;P2;SDS_P1;SDS_P2;PMS_P1;PMS_P2;Temp;Humidity;BMP_temperature;BMP_pressure;BME280_temperature;BME280_humidity;BME280_pressure;Samples;Min_cycle;Max_cycle;Signal;HPM_P1;HPM_P2
2021/09/29 00:00:43;;;;;;;5.23;4.73;;;12.80;99.90;;;;;;5021470;28;20430;-80
2021/09/29 00:03:08;;;;;;;6.80;5.80;;;12.70;99.90;;;;;;5020402;28;20183;-80
2021/09/29 00:05:34;;;;;;;6.33;5.77;;;12.60;99.90;;;;;;5029957;28;20709;-81
2021/09/29 00:07:59;;;;;;;6.33;5.70;;;12.50;99.90;;;;;;5024272;28;20189;-81
2021/09/29 00:10:25;;;;;;;5.60;5.10;;;12.60;99.90;;;;;;5024113;28;20182;-81
2021/09/29 00:12:50;;;;;;;6.77;5.27;;;12.50;99.90;;;;;;5026482;28;20241;-81
2021/09/29 00:15:16;;;;;;;6.60;6.00;;;12.30;99.90;;;;;;5026297;28;20269;-81
2021/09/29 00:17:43;;;;;;;6.43;5.80;;;12.70;99.90;;;;;;5022219;28;20220;-81
2021/09/29 00:20:10;;;;;;;6.60;5.90;;;12.20;99.90;;;;;;5025698;28;20195;-81
2021/09/29 00:22:36;;;;;;;6.68;6.07;;;12.70;99.90;;;;;;5023028;28;20191;-82
2021/09/29 00:25:03;;;;;;;6.83;6.13;;;12.80;99.90;;;;;;5020463;28;20561;-81
2021/09/29 00:27:29;;;;;;;6.90;6.20;;;12.40;99.90;;;;;;5025447;28;20956;-81
2021/09/29 00:29:58;;;;;;;6.40;5.80;;;12.40;99.90;;;;;;5025789;28;20422;-81
2021/09/29 00:32:24;;;;;;;6.77;6.17;;;12.70;99.90;;;;;;5022772;28;20213;-81
2021/09/29 00:34:49;;;;;;;6.70;6.10;;;12.60;99.90;;;;;;5022983;28;20489;-81
2021/09/29 00:37:15;;;;;;;6.17;5.73;;;12.50;99.90;;;;;;5025251;28;20325;-81
2021/09/29 00:39:40;;;;;;;5.90;5.40;;;12.30;99.90;;;;;;5029415;28;20194;-81
2021/09/29 00:42:06;;;;;;;6.50;5.70;;;12.40;99.90;;;;;;5027894;28;20233;-81
2021/09/29 00:44:32;;;;;;;5.87;5.37;;;12.20;99.90;;;;;;5032905;28;20557;-81
2021/09/29 00:46:57;;;;;;;7.00;5.80;;;12.20;99.90;;;;;;5037512;28;20190;-81
2021/09/29 00:49:23;;;;;;;8.50;6.13;;;12.50;99.90;;;;;;5027618;28;20229;-81
2021/09/29 00:51:49;;;;;;;5.80;5.30;;;12.10;99.90;;;;;;5027605;28;21272;-81
2021/09/29 00:54:14;;;;;;;7.80;5.83;;;12.40;99.90;;;;;;5027248;28;20184;-81
2021/09/29 00:56:40;;;;;;;6.57;5.97;;;12.60;99.90;;;;;;5026936;28;20436;-81
2021/09/29 00:59:05;;;;;;;6.13;5.47;;;12.20;99.90;;;;;;5025351;28;20611;-81
2021/09/29 01:01:32;;;;;;;7.10;6.50;;;12.00;99.90;;;;;;5027365;28;20214;-81
2021/09/29 01:04:00;;;;;;;6.50;5.30;;;12.00;99.90;;;;;;5029100;28;20668;-81
2021/09/29 01:06:36;;;;;;;5.82;5.32;;;12.20;99.90;;;;;;5028168;28;20228;-81
2021/09/29 01:09:08;;;;;;;7.63;5.88;;;12.00;99.90;;;;;;5025398;28;20190;-81
2021/09/29 01:11:50;;;;;;;6.75;6.05;;;12.20;99.90;;;;;;5029201;28;20229;-81
2021/09/29 01:14:31;;;;;;;6.82;6.20;;;12.30;99.90;;;;;;5026909;28;20209;-81
2021/09/29 01:16:59;;;;;;;6.85;6.25;;;11.90;99.90;;;;;;5039059;28;20198;-81
2021/09/29 01:19:42;;;;;;;7.05;6.30;;;12.00;99.90;;;;;;5023528;28;20195;-80
2021/09/29 01:22:34;;;;;;;7.72;6.93;;;12.00;99.90;;;;;;5028443;28;20209;-81
2021/09/29 01:25:03;;;;;;;7.75;6.95;;;11.90;99.90;;;;;;5027828;28;20214;-80
2021/09/29 01:27:31;;;;;;;7.40;6.70;;;12.00;99.90;;;;;;5029630;28;20208;-80
2021/09/29 01:29:58;;;;;;;7.13;6.43;;;12.10;99.90;;;;;;5028462;28;20191;-81
2021/09/29 01:32:24;;;;;;;6.82;6.20;;;11.80;99.90;;;;;;5024905;28;20696;-81
2021/09/29 01:34:51;;;;;;;6.57;5.97;;;11.70;99.90;;;;;;5026710;28;20195;-81
2021/09/29 01:37:17;;;;;;;7.20;6.40;;;11.90;99.90;;;;;;5026856;28;20708;-81
2021/09/29 01:39:43;;;;;;;6.75;6.00;;;12.00;99.90;;;;;;5031835;28;20466;-81
2021/09/29 01:42:09;;;;;;;6.82;6.13;;;11.80;99.90;;;;;;5023364;28;20791;-80
2021/09/29 01:44:35;;;;;;;7.43;6.73;;;11.90;99.90;;;;;;5026192;28;20217;-81
2021/09/29 01:47:01;;;;;;;7.53;6.73;;;11.80;99.90;;;;;;5023723;28;20441;-80
2021/09/29 01:49:34;;;;;;;7.45;6.75;;;11.90;99.90;;;;;;5027823;28;20191;-81
2021/09/29 01:52:01;;;;;;;8.07;7.05;;;11.60;99.90;;;;;;5028057;28;20211;-81
2021/09/29 01:54:30;;;;;;;6.97;6.20;;;11.70;99.90;;;;;;5022969;28;20186;-81
2021/09/29 01:56:55;;;;;;;7.28;6.55;;;11.80;99.90;;;;;;5025134;28;20191;-81
2021/09/29 01:59:24;;;;;;;6.90;6.20;;;11.50;99.90;;;;;;5028745;28;20262;-81
2021/09/29 02:01:52;;;;;;;6.93;6.32;;;11.90;99.90;;;;;;5023645;28;20195;-81
2021/09/29 02:04:19;;;;;;;6.47;5.88;;;11.90;99.90;;;;;;5022850;28;20221;-81
2021/09/29 02:06:56;;;;;;;7.85;6.75;;;11.60;99.90;;;;;;5022148;28;20227;-80
2021/09/29 02:09:24;;;;;;;7.85;6.55;;;11.80;99.90;;;;;;5027969;28;20660;-81
2021/09/29 02:11:50;;;;;;;7.47;6.78;;;11.60;99.90;;;;;;5026000;28;20191;-81
2021/09/29 02:14:20;;;;;;;6.68;5.82;;;11.50;99.90;;;;;;5030963;28;20679;-81
2021/09/29 02:16:47;;;;;;;8.25;7.22;;;11.60;99.90;;;;;;5027723;28;20202;-81
2021/09/29 02:19:13;;;;;;;7.43;6.72;;;11.80;99.90;;;;;;5024738;28;20194;-81
2021/09/29 02:21:41;;;;;;;8.77;7.90;;;11.60;99.90;;;;;;5024349;28;20213;-81
2021/09/29 02:24:07;;;;;;;8.38;7.55;;;11.60;99.90;;;;;;5023758;28;20229;-81
2021/09/29 02:26:32;;;;;;;9.95;8.50;;;11.80;99.90;;;;;;5027556;28;20630;-81
2021/09/29 02:28:58;;;;;;;9.30;7.80;;;11.90;99.90;;;;;;5028280;28;20205;-81
2021/09/29 02:31:24;;;;;;;9.03;8.00;;;11.70;99.90;;;;;;5021833;28;20179;-81
2021/09/29 02:33:49;;;;;;;9.03;7.77;;;11.60;99.90;;;;;;5022654;28;20211;-81
2021/09/29 02:36:15;;;;;;;7.93;7.13;;;11.60;99.90;;;;;;5021667;28;20658;-81
2021/09/29 02:38:42;;;;;;;9.27;7.00;;;11.80;99.90;;;;;;5025636;28;20179;-81
2021/09/29 02:41:13;;;;;;;8.50;7.47;;;11.90;99.90;;;;;;5033054;28;20198;-82
2021/09/29 02:43:38;;;;;;;12.90;8.50;;;11.90;99.90;;;;;;5044049;28;21053;-81
2021/09/29 02:46:05;;;;;;;8.73;7.60;;;11.70;99.90;;;;;;5033954;28;20296;-80
2021/09/29 02:48:30;;;;;;;8.63;7.65;;;11.80;99.90;;;;;;5019755;28;20700;-81
2021/09/29 02:50:56;;;;;;;8.87;6.80;;;11.50;99.90;;;;;;5023433;28;20183;-81
2021/09/29 02:53:22;;;;;;;8.93;7.03;;;11.60;99.90;;;;;;5021747;28;20191;-81
2021/09/29 02:55:47;;;;;;;7.93;6.90;;;11.40;99.90;;;;;;5024328;28;20205;-81
2021/09/29 02:58:13;;;;;;;8.13;7.10;;;11.30;99.90;;;;;;5023342;28;20770;-81
2021/09/29 03:00:38;;;;;;;7.90;7.10;;;11.30;99.90;;;;;;5029813;28;20179;-81
2021/09/29 03:03:04;;;;;;;7.77;6.90;;;11.40;99.90;;;;;;5026730;28;20269;-81
2021/09/29 03:05:30;;;;;;;7.60;6.80;;;11.20;99.90;;;;;;5025709;28;20236;-81
2021/09/29 03:07:55;;;;;;;7.47;6.77;;;11.20;99.90;;;;;;5023062;28;20191;-81
2021/09/29 03:10:21;;;;;;;9.57;7.80;;;11.10;99.90;;;;;;5022878;28;20565;-80
2021/09/29 03:12:46;;;;;;;8.37;7.40;;;10.80;99.90;;;;;;5023464;28;20201;-80
2021/09/29 03:15:14;;;;;;;8.90;7.40;;;10.90;99.90;;;;;;5025066;28;20215;-81
2021/09/29 03:17:40;;;;;;;11.20;7.65;;;10.90;99.90;;;;;;5026574;28;20187;-81
2021/09/29 03:20:06;;;;;;;7.90;7.10;;;11.20;99.90;;;;;;5025692;28;20198;-81
2021/09/29 03:22:32;;;;;;;8.55;7.65;;;10.70;99.90;;;;;;5020722;28;20493;-81
2021/09/29 03:24:58;;;;;;;7.43;6.73;;;11.00;99.90;;;;;;5026209;28;20296;-81
2021/09/29 03:27:24;;;;;;;7.93;7.03;;;10.90;99.90;;;;;;5030928;28;20266;-80
2021/09/29 03:29:49;;;;;;;7.87;7.13;;;10.90;99.90;;;;;;5026645;28;20281;-81
2021/09/29 03:32:15;;;;;;;7.80;6.70;;;10.60;99.90;;;;;;5025484;28;20221;-81
2021/09/29 03:34:40;;;;;;;9.10;7.50;;;10.60;99.90;;;;;;5029408;28;20198;-81
2021/09/29 03:37:06;;;;;;;9.20;7.17;;;10.70;99.90;;;;;;5023459;28;20238;-81
2021/09/29 03:39:31;;;;;;;8.00;7.20;;;10.50;99.90;;;;;;5021641;28;20187;-80
2021/09/29 03:41:57;;;;;;;8.00;7.00;;;10.70;99.90;;;;;;5026640;28;20212;-80
2021/09/29 03:44:23;;;;;;;9.50;7.60;;;10.70;99.90;;;;;;5045319;28;20300;-80
2021/09/29 03:46:48;;;;;;;7.63;6.93;;;10.50;99.90;;;;;;5024247;28;20191;-81
2021/09/29 03:49:14;;;;;;;8.93;7.20;;;10.50;99.90;;;;;;5020700;28;20513;-80
2021/09/29 03:51:39;;;;;;;7.43;6.73;;;10.50;99.90;;;;;;5021515;28;20184;-80
2021/09/29 03:54:05;;;;;;;8.30;7.40;;;10.60;99.90;;;;;;5027254;28;20350;-81
2021/09/29 03:56:30;;;;;;;9.53;7.10;;;10.30;99.90;;;;;;5025921;28;20245;-80
2021/09/29 03:58:56;;;;;;;8.87;7.40;;;10.50;99.90;;;;;;5026301;28;20185;-80
2021/09/29 04:01:22;;;;;;;9.77;7.30;;;10.70;99.90;;;;;;5022653;28;20192;-81
2021/09/29 04:03:47;;;;;;;10.27;7.33;;;10.50;99.90;;;;;;5023801;28;20252;-80
2021/09/29 04:06:13;;;;;;;10.83;7.90;;;10.60;99.90;;;;;;5023853;28;20223;-81
2021/09/29 04:08:38;;;;;;;8.43;7.03;;;10.70;99.90;;;;;;5024193;28;20183;-81
2021/09/29 04:11:07;;;;;;;9.53;7.87;;;10.80;99.90;;;;;;5029252;28;20191;-81
2021/09/29 04:13:32;;;;;;;9.50;7.53;;;10.90;99.90;;;;;;5032012;28;20195;-81
2021/09/29 04:15:58;;;;;;;7.70;6.90;;;10.90;99.90;;;;;;5037778;28;20190;-80
2021/09/29 04:18:23;;;;;;;8.60;7.57;;;10.90;99.90;;;;;;5028652;28;20656;-81
2021/09/29 04:20:49;;;;;;;9.30;7.90;;;10.80;99.90;;;;;;5029559;28;20678;-80
2021/09/29 04:23:14;;;;;;;10.53;7.43;;;10.90;99.90;;;;;;5028649;28;20193;-80
2021/09/29 04:25:41;;;;;;;8.93;7.80;;;11.00;99.90;;;;;;5027140;28;20210;-80
2021/09/29 04:28:07;;;;;;;9.77;7.13;;;11.00;99.90;;;;;;5028199;28;20212;-80
2021/09/29 04:30:33;;;;;;;10.75;7.85;;;11.00;99.90;;;;;;5041383;28;20250;-80
2021/09/29 04:33:00;;;;;;;7.63;6.90;;;10.80;99.90;;;;;;5029428;28;20179;-81
2021/09/29 04:35:26;;;;;;;10.55;9.45;;;10.80;99.90;;;;;;5036471;28;20245;-81
2021/09/29 04:37:52;;;;;;;7.47;6.78;;;11.00;99.90;;;;;;5035956;28;20662;-80
2021/09/29 04:40:17;;;;;;;8.60;7.40;;;10.60;99.90;;;;;;5025537;28;20223;-80
2021/09/29 04:42:43;;;;;;;8.63;7.40;;;10.70;99.90;;;;;;5029164;28;20192;-80
2021/09/29 04:45:08;;;;;;;9.87;7.70;;;10.80;99.90;;;;;;5025266;28;20240;-81
2021/09/29 04:47:34;;;;;;;8.57;7.67;;;10.80;99.90;;;;;;5034582;28;20194;-81
2021/09/29 04:50:00;;;;;;;8.20;7.33;;;10.60;99.90;;;;;;5029193;28;20571;-80
2021/09/29 04:52:26;;;;;;;9.53;7.60;;;10.60;99.90;;;;;;5036415;28;20222;-80
2021/09/29 04:54:52;;;;;;;9.45;7.63;;;10.70;99.90;;;;;;5024640;28;20440;-80
2021/09/29 04:57:18;;;;;;;8.05;7.10;;;10.70;99.90;;;;;;5027391;28;20187;-80
2021/09/29 04:59:43;;;;;;;8.03;6.30;;;10.70;99.90;;;;;;5041783;28;20199;-80
2021/09/29 05:02:11;;;;;;;9.10;7.40;;;10.50;99.90;;;;;;5029177;28;20188;-82
2021/09/29 05:04:37;;;;;;;8.25;7.35;;;10.40;99.90;;;;;;5027050;28;20674;-81
2021/09/29 05:07:04;;;;;;;8.95;7.22;;;10.50;99.90;;;;;;5025244;28;20556;-83
2021/09/29 05:09:30;;;;;;;8.38;7.05;;;10.20;99.90;;;;;;5039847;28;20179;-80
2021/09/29 05:12:07;;;;;;;8.00;7.20;;;10.20;99.90;;;;;;5025185;28;20190;-78
2021/09/29 05:14:32;;;;;;;6.93;6.20;;;10.40;99.90;;;;;;5032133;28;20270;-78
2021/09/29 05:16:58;;;;;;;6.90;6.20;;;10.40;99.90;;;;;;5042198;28;20325;-74
2021/09/29 05:19:23;;;;;;;7.23;6.33;;;10.30;99.90;;;;;;5036076;28;20259;-75
2021/09/29 05:21:49;;;;;;;6.70;6.00;;;10.10;99.90;;;;;;5032189;28;20193;-75
2021/09/29 05:24:15;;;;;;;8.43;7.57;;;9.80;99.90;;;;;;5031898;28;20217;-75
2021/09/29 05:26:41;;;;;;;8.77;6.70;;;10.10;99.90;;;;;;5028821;28;20662;-75
2021/09/29 05:29:07;;;;;;;8.43;7.17;;;10.10;99.90;;;;;;5029919;28;20610;-75
2021/09/29 05:31:33;;;;;;;8.38;6.82;;;9.80;99.90;;;;;;5023658;28;20469;-75
2021/09/29 05:33:59;;;;;;;9.20;7.10;;;9.90;99.90;;;;;;5035008;28;20213;-76
2021/09/29 05:36:24;;;;;;;7.43;6.73;;;10.00;99.90;;;;;;5023505;28;20187;-75
2021/09/29 05:38:50;;;;;;;9.07;7.50;;;10.00;99.90;;;;;;5027188;28;20186;-76
2021/09/29 05:41:16;;;;;;;8.40;6.90;;;9.80;99.90;;;;;;5026860;28;20182;-75
2021/09/29 05:43:41;;;;;;;10.13;7.30;;;9.70;99.90;;;;;;5027316;28;20428;-76
2021/09/29 05:46:07;;;;;;;9.30;6.90;;;9.70;99.90;;;;;;5029278;28;20212;-76
2021/09/29 05:48:32;;;;;;;8.03;7.20;;;9.90;99.90;;;;;;5041247;28;20653;-75
2021/09/29 05:50:58;;;;;;;8.47;7.60;;;10.10;99.90;;;;;;5036169;28;20183;-75
2021/09/29 05:53:23;;;;;;;8.93;8.03;;;9.90;99.90;;;;;;5043505;28;20711;-75
2021/09/29 05:55:49;;;;;;;9.23;8.23;;;9.80;99.90;;;;;;5021488;28;20195;-75
2021/09/29 05:58:15;;;;;;;8.23;7.43;;;10.10;99.90;;;;;;5033700;28;20194;-75
2021/09/29 06:00:40;;;;;;;8.23;7.50;;;9.90;99.90;;;;;;5033048;28;20768;-76
2021/09/29 06:03:06;;;;;;;9.50;8.47;;;10.10;99.90;;;;;;5026837;28;20658;-76
2021/09/29 06:05:31;;;;;;;8.13;7.10;;;10.00;99.90;;;;;;4991587;28;1033620;-75
2021/09/29 06:07:57;;;;;;;10.00;8.30;;;10.10;99.90;;;;;;5029373;28;20548;-75
2021/09/29 06:10:23;;;;;;;10.63;9.63;;;10.20;99.90;;;;;;5024799;28;20209;-76
2021/09/29 06:12:48;;;;;;;10.35;9.35;;;10.30;99.90;;;;;;5023898;28;20195;-76
2021/09/29 06:15:25;;;;;;;11.47;9.30;;;10.40;99.90;;;;;;5031966;28;20196;-75
2021/09/29 06:17:55;;;;;;;10.77;8.70;;;10.70;99.90;;;;;;5022042;28;20239;-75
2021/09/29 06:20:21;;;;;;;10.90;8.15;;;10.40;99.90;;;;;;5031018;28;20711;-75
2021/09/29 06:22:47;;;;;;;14.80;8.63;;;10.60;99.90;;;;;;5022717;28;20183;-75
2021/09/29 06:25:13;;;;;;;14.40;9.77;;;10.70;99.90;;;;;;5022230;28;20505;-76
2021/09/29 06:27:39;;;;;;;12.20;9.55;;;11.10;99.90;;;;;;5036621;28;20187;-76
2021/09/29 06:30:05;;;;;;;17.27;9.77;;;11.10;99.90;;;;;;5027236;28;20199;-75
2021/09/29 06:32:30;;;;;;;10.55;9.45;;;11.00;99.90;;;;;;5025229;28;20179;-76
2021/09/29 06:34:56;;;;;;;11.70;9.17;;;11.00;99.90;;;;;;5025430;28;20540;-76
2021/09/29 06:37:21;;;;;;;13.70;9.07;;;11.20;99.90;;;;;;5017667;28;20183;-76
2021/09/29 06:39:47;;;;;;;9.17;8.33;;;11.50;99.90;;;;;;5029605;28;20648;-75
2021/09/29 06:42:12;;;;;;;9.03;8.13;;;11.40;99.90;;;;;;5030966;28;20677;-75
2021/09/29 06:44:38;;;;;;;9.50;8.07;;;11.60;99.90;;;;;;5026662;28;20292;-74
2021/09/29 06:47:03;;;;;;;11.50;8.50;;;11.50;99.90;;;;;;5027190;28;20183;-73
2021/09/29 06:49:30;;;;;;;9.90;8.40;;;11.80;99.90;;;;;;5042927;28;20697;-75
2021/09/29 06:51:55;;;;;;;9.30;8.35;;;12.10;99.90;;;;;;5030453;28;20288;-75
2021/09/29 06:54:21;;;;;;;10.57;8.23;;;12.30;99.90;;;;;;5023698;28;20274;-75
2021/09/29 06:56:47;;;;;;;8.53;7.33;;;12.40;99.90;;;;;;5024909;28;20215;-75
2021/09/29 06:59:12;;;;;;;8.70;7.60;;;12.80;99.90;;;;;;5027213;28;20940;-75
2021/09/29 07:01:38;;;;;;;9.23;8.33;;;12.40;99.90;;;;;;5031257;28;20189;-79
2021/09/29 07:04:04;;;;;;;8.23;6.90;;;12.80;99.90;;;;;;5026387;28;20219;-75
2021/09/29 07:06:29;;;;;;;9.07;6.70;;;12.70;99.90;;;;;;5021980;28;20231;-75
2021/09/29 07:08:55;;;;;;;7.20;6.50;;;12.70;99.90;;;;;;5026431;28;20252;-74
2021/09/29 07:11:21;;;;;;;7.63;5.80;;;13.00;99.90;;;;;;5023680;28;20427;-75
2021/09/29 07:13:46;;;;;;;8.87;6.57;;;13.00;99.90;;;;;;5030507;28;20422;-75
2021/09/29 07:16:13;;;;;;;6.53;5.93;;;13.10;99.90;;;;;;5022830;28;20191;-75
2021/09/29 07:18:39;;;;;;;6.93;5.63;;;13.00;99.90;;;;;;5026021;28;20182;-75
2021/09/29 07:21:05;;;;;;;6.53;5.93;;;13.10;99.90;;;;;;5023877;28;20457;-74
2021/09/29 07:23:30;;;;;;;6.07;5.47;;;13.30;99.90;;;;;;5027265;28;20463;-75
2021/09/29 07:25:56;;;;;;;5.27;4.80;;;13.30;99.90;;;;;;5026054;28;20573;-75
2021/09/29 07:28:22;;;;;;;5.37;4.87;;;13.80;99.90;;;;;;5023720;28;20883;-75
2021/09/29 07:30:47;;;;;;;4.77;4.37;;;14.10;99.90;;;;;;5023871;28;20538;-75
2021/09/29 07:33:14;;;;;;;5.17;4.67;;;14.40;99.90;;;;;;5020005;28;20604;-75
2021/09/29 07:35:41;;;;;;;4.40;4.00;;;14.60;99.90;;;;;;5021282;28;20234;-74
2021/09/29 07:38:07;;;;;;;3.90;3.40;;;14.70;99.90;;;;;;5022711;28;20457;-75
2021/09/29 07:40:33;;;;;;;3.57;3.23;;;15.00;99.90;;;;;;5032262;28;20430;-75
2021/09/29 07:42:59;;;;;;;3.50;3.20;;;14.90;99.90;;;;;;5025669;28;20434;-75
2021/09/29 07:45:25;;;;;;;6.80;2.97;;;15.00;99.90;;;;;;5021879;28;20483;-75
2021/09/29 07:47:52;;;;;;;3.10;2.80;;;14.90;99.90;;;;;;5020163;28;20183;-75
2021/09/29 07:50:18;;;;;;;3.47;2.70;;;15.20;99.90;;;;;;5020790;28;20434;-75
2021/09/29 07:52:45;;;;;;;2.90;2.70;;;15.10;99.90;;;;;;5023726;28;20438;-74
2021/09/29 07:55:12;;;;;;;2.87;2.67;;;15.00;99.90;;;;;;5023351;28;20467;-76
2021/09/29 07:57:39;;;;;;;3.10;2.90;;;15.30;99.90;;;;;;5025315;28;20445;-74
2021/09/29 08:00:06;;;;;;;2.47;2.27;;;15.40;99.90;;;;;;5021676;28;20437;-76
2021/09/29 08:02:31;;;;;;;2.93;2.53;;;15.30;99.90;;;;;;5019805;28;20460;-74
2021/09/29 08:05:01;;;;;;;3.40;3.20;;;15.70;99.90;;;;;;5019748;28;20470;-74
2021/09/29 08:07:27;;;;;;;2.70;2.50;;;15.50;99.90;;;;;;5025812;28;20375;-75
2021/09/29 08:09:52;;;;;;;2.17;2.00;;;15.70;99.90;;;;;;5035978;28;20433;-75
2021/09/29 08:12:18;;;;;;;3.00;2.70;;;15.60;99.90;;;;;;5031734;28;20187;-75
2021/09/29 08:14:43;;;;;;;2.70;2.50;;;15.80;99.90;;;;;;5020506;28;20182;-74
2021/09/29 08:17:09;;;;;;;3.83;2.10;;;16.20;99.60;;;;;;5019698;28;20200;-75
2021/09/29 08:19:35;;;;;;;2.23;2.03;;;16.20;99.10;;;;;;5021710;28;20194;-75
2021/09/29 08:22:06;;;;;;;2.30;2.10;;;16.20;98.70;;;;;;5026056;28;20191;-74
2021/09/29 08:24:40;;;;;;;2.63;2.30;;;16.30;95.80;;;;;;5022824;28;20474;-75
2021/09/29 08:29:42;;;;;;;2.17;1.80;;;16.30;94.20;;;;;;5020087;28;20433;-76
2021/09/29 08:32:25;;;;;;;2.10;2.00;;;16.40;94.80;;;;;;5026525;28;20202;-73
2021/09/29 08:34:57;;;;;;;2.30;1.90;;;16.80;94.80;;;;;;5022719;28;20441;-73
2021/09/29 08:37:37;;;;;;;2.33;2.23;;;17.40;92.80;;;;;;5022188;28;20441;-75
2021/09/29 08:47:41;;;;;;;2.37;1.60;;;19.30;80.10;;;;;;5025965;28;20440;-75
2021/09/29 08:52:44;;;;;;;1.90;1.70;;;20.80;69.40;;;;;;5027021;28;20927;-76
2021/09/29 09:14:53;;;;;;;2.00;1.20;;;30.10;36.30;;;;;;5028019;28;20438;-78
2021/09/29 09:17:36;;;;;;;1.37;1.27;;;30.40;36.20;;;;;;5025235;28;21077;-77
2021/09/29 09:20:09;;;;;;;1.83;1.53;;;31.10;36.00;;;;;;5030681;28;20799;-77
2021/09/29 09:22:35;;;;;;;1.30;1.20;;;31.80;33.60;;;;;;5029691;28;20453;-82
2021/09/29 09:25:01;;;;;;;1.40;1.30;;;32.10;33.30;;;;;;5030340;28;20468;-75
2021/09/29 09:27:37;;;;;;;1.53;1.43;;;31.70;33.00;;;;;;5029406;28;20186;-76
2021/09/29 09:30:04;;;;;;;1.23;1.17;;;31.90;32.30;;;;;;5037683;28;20190;-76
2021/09/29 09:32:41;;;;;;;1.50;1.40;;;32.10;32.40;;;;;;5029911;28;20495;-76
2021/09/29 09:35:13;;;;;;;2.80;1.40;;;32.80;32.10;;;;;;5032965;28;20432;-76
2021/09/29 09:37:40;;;;;;;1.80;1.70;;;33.60;30.60;;;;;;5036018;28;20452;-79
2021/09/29 09:40:16;;;;;;;3.57;1.43;;;34.20;29.50;;;;;;5036097;28;20524;-76
2021/09/29 09:42:47;;;;;;;1.53;1.43;;;34.60;28.50;;;;;;5030083;28;20447;-75
2021/09/29 09:45:14;;;;;;;1.30;1.20;;;34.40;28.00;;;;;;5030077;28;21023;-74
2021/09/29 09:47:45;;;;;;;1.60;1.40;;;33.40;28.30;;;;;;5034213;28;20459;-75
2021/09/29 09:50:22;;;;;;;1.87;1.77;;;31.90;29.90;;;;;;5032917;28;20803;-78
2021/09/29 09:52:48;;;;;;;2.47;1.53;;;30.60;32.60;;;;;;5029407;28;20531;-75
2021/09/29 09:55:19;;;;;;;1.93;1.73;;;29.30;34.20;;;;;;5029647;28;20531;-76
2021/09/29 09:57:53;;;;;;;1.47;1.37;;;28.00;35.10;;;;;;5030055;28;20198;-74
2021/09/29 10:00:23;;;;;;;1.50;1.40;;;28.00;37.50;;;;;;5027966;28;20450;-75
2021/09/29 10:02:51;;;;;;;2.13;1.50;;;28.30;36.40;;;;;;5038469;28;20476;-75
2021/09/29 10:05:18;;;;;;;1.20;1.10;;;29.00;33.70;;;;;;5022717;28;20880;-74
2021/09/29 10:07:45;;;;;;;1.10;1.00;;;29.50;32.80;;;;;;5025716;28;20435;-75
2021/09/29 10:10:57;;;;;;;1.17;1.10;;;29.40;32.30;;;;;;5024552;28;20491;-75
2021/09/29 10:27:14;;;;;;;2.40;1.33;;;33.60;26.90;;;;;;5021986;28;20472;-74
2021/09/29 10:29:48;;;;;;;2.50;1.50;;;32.20;27.60;;;;;;5034299;28;20452;-74
2021/09/29 10:32:18;;;;;;;1.23;1.13;;;30.80;29.20;;;;;;5025649;28;20567;-74
2021/09/29 10:35:08;;;;;;;1.83;1.33;;;30.20;31.20;;;;;;5032930;28;20446;-75
2021/09/29 10:37:59;;;;;;;1.97;1.40;;;28.80;31.90;;;;;;5023077;28;20438;-74
2021/09/29 10:40:55;;;;;;;2.60;1.40;;;27.30;34.60;;;;;;5026861;28;20555;-75
2021/09/29 10:43:27;;;;;;;1.77;1.43;;;26.20;37.60;;;;;;5024731;28;20947;-76
2021/09/29 10:46:03;;;;;;;1.43;1.27;;;25.00;39.70;;;;;;5022784;28;20569;-76
2021/09/29 11:30:26;;;;;;;1.77;1.30;;;25.50;46.80;;;;;;5026872;28;20476;-76
2021/09/29 11:33:05;;;;;;;1.70;1.10;;;28.20;39.40;;;;;;5024003;28;20895;-75
2021/09/29 11:35:42;;;;;;;1.90;0.97;;;30.50;36.00;;;;;;5020210;28;20256;-76
2021/09/29 12:11:10;;;;;;;1.20;1.00;;;24.80;39.40;;;;;;5025264;28;20435;-78
2021/09/29 12:13:52;;;;;;;1.13;0.90;;;24.70;40.30;;;;;;5021981;28;20426;-76
2021/09/29 12:16:32;;;;;;;1.23;0.80;;;25.40;41.70;;;;;;5020901;28;20466;-75
2021/09/29 12:19:07;;;;;;;2.37;1.00;;;27.50;37.20;;;;;;5020072;28;20468;-74
2021/09/29 12:21:54;;;;;;;0.80;0.80;;;27.90;35.90;;;;;;5025299;28;20444;-74
2021/09/29 12:24:33;;;;;;;2.13;0.80;;;29.40;35.30;;;;;;5023597;28;20471;-76
2021/09/29 12:27:01;;;;;;;0.63;0.63;;;31.70;31.60;;;;;;5021329;28;20441;-75
2021/09/29 12:29:36;;;;;;;1.03;0.93;;;33.20;29.70;;;;;;5020366;28;20491;-76
2021/09/29 12:37:51;;;;;;;1.00;0.77;;;36.30;25.10;;;;;;5029152;28;20959;-76
2021/09/29 12:40:17;;;;;;;1.63;1.00;;;36.00;24.50;;;;;;5023783;28;20446;-79
2021/09/29 12:42:42;;;;;;;1.00;0.80;;;34.40;25.20;;;;;;5023634;28;20445;-74
2021/09/29 12:45:10;;;;;;;1.47;1.00;;;32.50;26.80;;;;;;5025206;28;20224;-74
2021/09/29 12:47:38;;;;;;;1.10;0.87;;;31.60;29.20;;;;;;5029415;28;20277;-75
2021/09/29 12:50:11;;;;;;;1.23;0.70;;;31.00;29.50;;;;;;5029307;28;20442;-75
2021/09/29 12:52:45;;;;;;;2.43;0.90;;;29.70;30.20;;;;;;5027042;28;20493;-75
2021/09/29 12:55:16;;;;;;;1.53;1.10;;;28.40;32.40;;;;;;5025032;28;20457;-75
2021/09/29 12:57:41;;;;;;;1.83;0.87;;;27.10;34.40;;;;;;5028380;28;20437;-75
2021/09/29 13:00:08;;;;;;;2.80;1.10;;;25.90;36.40;;;;;;5028990;28;20506;-74
2021/09/29 13:02:34;;;;;;;1.13;1.03;;;25.50;38.30;;;;;;5025251;28;20261;-75
2021/09/29 13:04:59;;;;;;;1.20;1.10;;;24.90;39.50;;;;;;5023331;28;21002;-75
2021/09/29 13:07:25;;;;;;;1.40;1.00;;;25.10;41.50;;;;;;5023624;28;20190;-75
2021/09/29 13:09:52;;;;;;;1.67;1.00;;;26.10;40.90;;;;;;5033299;28;20185;-76
2021/09/29 13:12:17;;;;;;;1.27;0.87;;;27.60;38.90;;;;;;5027028;28;20198;-76
2021/09/29 13:14:43;;;;;;;0.80;0.80;;;29.00;36.30;;;;;;5026688;28;20437;-75
2021/09/29 13:17:09;;;;;;;1.00;0.90;;;29.10;34.40;;;;;;5030085;28;20183;-76
2021/09/29 13:19:42;;;;;;;1.47;0.83;;;28.10;35.20;;;;;;5024801;28;20657;-75
2021/09/29 13:22:20;;;;;;;1.37;1.20;;;26.90;37.30;;;;;;5024516;28;20183;-75
2021/09/29 13:37:54;;;;;;;1.37;1.27;;;20.20;54.00;;;;;;5022543;28;20954;-75
2021/09/29 13:40:20;;;;;;;1.20;1.10;;;19.50;58.30;;;;;;5029406;28;20508;-72
2021/09/29 13:42:45;;;;;;;1.97;1.57;;;18.60;62.60;;;;;;5024782;28;20439;-73
2021/09/29 13:45:11;;;;;;;2.20;1.83;;;18.00;68.30;;;;;;5024007;28;20212;-75
2021/09/29 13:47:37;;;;;;;1.37;1.27;;;17.30;72.20;;;;;;5027930;28;20187;-76
2021/09/29 13:50:05;;;;;;;1.40;1.30;;;17.00;77.00;;;;;;5025691;28;20263;-75
2021/09/29 13:52:31;;;;;;;3.47;1.60;;;16.40;84.70;;;;;;5022138;28;20430;-76
2021/09/29 13:55:04;;;;;;;1.70;1.60;;;16.30;90.00;;;;;;5025544;28;20512;-76
2021/09/29 13:57:39;;;;;;;1.60;1.50;;;16.10;97.40;;;;;;5029040;28;20440;-75
2021/09/29 14:29:44;;;;;;;1.00;0.90;;;15.50;99.90;;;;;;5025128;28;20977;-74
2021/09/29 14:32:20;;;;;;;0.80;0.80;;;15.40;99.90;;;;;;5024748;28;20458;-75
2021/09/29 14:34:46;;;;;;;1.00;0.90;;;15.30;99.90;;;;;;5027059;28;20789;-74
2021/09/29 14:37:12;;;;;;;0.73;0.73;;;14.90;99.90;;;;;;5021384;28;20434;-78
2021/09/29 14:39:39;;;;;;;0.93;0.77;;;14.70;99.90;;;;;;5023081;28;20453;-75
2021/09/29 14:42:04;;;;;;;0.80;0.80;;;14.20;99.90;;;;;;5025960;28;20638;-74
2021/09/29 14:44:30;;;;;;;1.00;0.70;;;14.20;99.90;;;;;;5026863;28;20477;-74
2021/09/29 14:46:56;;;;;;;0.60;0.60;;;13.90;99.90;;;;;;5024471;28;20236;-75
2021/09/29 14:49:22;;;;;;;0.70;0.70;;;14.10;99.90;;;;;;5021345;28;20186;-76
2021/09/29 14:51:47;;;;;;;0.60;0.60;;;13.70;99.90;;;;;;5021206;28;20433;-76
2021/09/29 14:54:13;;;;;;;0.73;0.73;;;13.60;99.90;;;;;;5033679;28;20201;-75
2021/09/29 14:56:38;;;;;;;0.70;0.70;;;13.10;99.90;;;;;;5025978;28;20210;-75
2021/09/29 14:59:04;;;;;;;0.60;0.60;;;13.20;99.90;;;;;;5026438;28;20191;-75
2021/09/29 15:01:33;;;;;;;1.00;0.80;;;13.10;99.90;;;;;;5020938;28;20195;-75
2021/09/29 15:03:59;;;;;;;1.20;1.10;;;12.90;99.90;;;;;;5020813;28;20456;-76
2021/09/29 15:06:25;;;;;;;0.90;0.90;;;12.90;99.90;;;;;;5026391;28;21503;-74
2021/09/29 15:08:51;;;;;;;0.75;0.75;;;12.90;99.90;;;;;;5029633;28;20189;-75
2021/09/29 15:11:17;;;;;;;1.10;1.00;;;13.10;99.90;;;;;;5022169;28;20199;-74
2021/09/29 15:13:59;;;;;;;0.70;0.70;;;12.80;99.90;;;;;;5020766;28;20646;-74
2021/09/29 15:16:31;;;;;;;0.90;0.90;;;12.80;99.90;;;;;;5028336;28;20191;-74
2021/09/29 15:19:13;;;;;;;0.80;0.80;;;12.80;99.90;;;;;;5022687;28;20214;-74
2021/09/29 15:24:26;;;;;;;1.00;1.00;;;12.80;99.90;;;;;;5021343;28;20198;-74
2021/09/29 15:32:06;;;;;;;0.93;0.93;;;12.70;99.90;;;;;;5024081;28;20241;-74
2021/09/29 15:48:17;;;;;;;1.10;0.93;;;12.90;99.90;;;;;;5019842;28;20257;-73
2021/09/29 15:51:03;;;;;;;0.93;0.93;;;13.00;99.90;;;;;;5032512;28;20183;-79
2021/09/29 15:59:09;;;;;;;1.25;1.13;;;12.90;99.90;;;;;;5027737;28;20194;-74
2021/09/29 16:01:37;;;;;;;1.15;0.80;;;12.90;99.90;;;;;;5027579;28;20218;-74
2021/09/29 16:04:19;;;;;;;0.85;0.70;;;13.10;99.90;;;;;;5024739;28;20209;-75
2021/09/29 16:06:52;;;;;;;1.05;1.05;;;13.00;99.90;;;;;;5027311;28;20469;-74